createdAt,value
2018-04-02T00:00:38.959Z,25.6
2018-04-02T00:01:28.725Z,25.6
2018-04-02T00:02:18.575Z,25.6
2018-04-02T00:03:09.606Z,25.6
2018-04-02T00:03:59.482Z,25.6
2018-04-02T00:04:50.005Z,25.6
2018-04-02T00:05:39.180Z,25.6
2018-04-02T00:06:30.254Z,25.6
2018-04-02T00:07:18.638Z,25.6
2018-04-02T00:08:10.269Z,25.6
2018-04-02T00:09:00.166Z,25.6
2018-04-02T00:09:50.186Z,25.6
2018-04-02T00:10:40.551Z,25.6
2018-04-02T00:11:30.590Z,25.6
2018-04-02T00:12:20.015Z,25.6
2018-04-02T00:13:10.677Z,25.5
2018-04-02T00:14:00.496Z,25.6
2018-04-02T00:14:50.157Z,25.5
2018-04-02T00:15:40.837Z,25.6
2018-04-02T00:16:31.207Z,25.5
2018-04-02T00:17:21.032Z,25.5
2018-04-02T00:18:10.578Z,25.5
2018-04-02T00:19:00.581Z,25.5
2018-04-02T00:19:51.037Z,25.6
2018-04-02T00:20:40.618Z,25.5
2018-04-02T00:21:30.746Z,25.5
2018-04-02T00:22:21.222Z,25.5
2018-04-02T00:23:11.162Z,25.5
2018-04-02T00:24:01.256Z,25.5
2018-04-02T00:24:50.495Z,25.5
2018-04-02T00:25:41.175Z,25.6
2018-04-02T00:26:31.106Z,25.5
2018-04-02T00:27:20.975Z,25.5
2018-04-02T00:28:11.170Z,25.5
2018-04-02T00:29:01.572Z,25.5
2018-04-02T00:29:51.580Z,25.5
2018-04-02T00:30:41.301Z,25.5
2018-04-02T00:31:32.070Z,25.5
2018-04-02T00:32:21.546Z,25.5
2018-04-02T00:33:11.317Z,25.5
2018-04-02T00:34:02.161Z,25.5
2018-04-02T00:34:51.740Z,25.5
2018-04-02T00:35:42.534Z,25.5
2018-04-02T00:36:32.594Z,25.6
2018-04-02T00:37:22.944Z,25.5
2018-04-02T00:38:12.993Z,25.5
2018-04-02T00:39:03.359Z,25.5
2018-04-02T00:39:52.874Z,25.5
2018-04-02T00:40:42.331Z,25.5
2018-04-02T00:41:32.195Z,25.5
2018-04-02T00:42:22.319Z,25.5
2018-04-02T00:43:12.924Z,25.5
2018-04-02T00:44:02.684Z,25.5
2018-04-02T00:44:53.011Z,25.5
2018-04-02T00:45:42.893Z,25.5
2018-04-02T00:46:33.479Z,25.5
2018-04-02T00:47:23.966Z,25.5
2018-04-02T00:48:13.758Z,25.5
2018-04-02T00:49:03.824Z,25.5
2018-04-02T00:49:53.555Z,25.5
2018-04-02T00:50:43.987Z,25.5
2018-04-02T00:51:33.411Z,25.5
2018-04-02T00:52:23.733Z,25.5
2018-04-02T00:53:14.142Z,25.4
2018-04-02T00:54:04.461Z,25.5
2018-04-02T00:54:54.496Z,25.5
2018-04-02T00:55:43.746Z,25.5
2018-04-02T00:56:34.593Z,25.4
2018-04-02T00:57:22.916Z,25.4
2018-04-02T00:58:14.080Z,25.4
2018-04-02T00:59:03.990Z,25.5
2018-04-02T00:59:54.110Z,25.5
2018-04-02T01:00:43.308Z,25.4
2018-04-02T01:01:34.129Z,25.4
2018-04-02T01:02:23.906Z,25.4
2018-04-02T01:03:13.706Z,25.4
2018-04-02T01:04:03.351Z,25.4
2018-04-02T01:04:54.090Z,25.4
2018-04-02T01:05:44.141Z,25.4
2018-04-02T01:06:34.305Z,25.4
2018-04-02T01:07:23.945Z,25.4
2018-04-02T01:08:14.708Z,25.4
2018-04-02T01:09:04.205Z,25.4
2018-04-02T01:09:54.667Z,25.4
2018-04-02T01:10:45.007Z,25.4
2018-04-02T01:11:34.300Z,25.5
2018-04-02T01:12:25.100Z,25.4
2018-04-02T01:13:14.572Z,25.4
2018-04-02T01:14:04.861Z,25.4
2018-04-02T01:14:54.922Z,25.4
2018-04-02T01:15:45.745Z,25.4
2018-04-02T01:16:34.749Z,25.4
2018-04-02T01:17:24.736Z,25.4
2018-04-02T01:18:15.457Z,25.4
2018-04-02T01:19:05.226Z,25.4
2018-04-02T01:19:55.079Z,25.4
2018-04-02T01:20:44.804Z,25.4
2018-04-02T01:21:35.034Z,25.4
2018-04-02T01:22:25.412Z,25.4
2018-04-02T01:23:14.950Z,25.4
2018-04-02T01:24:04.706Z,25.4
2018-04-02T01:24:55.758Z,25.4
2018-04-02T01:25:45.919Z,25.4
2018-04-02T01:26:35.554Z,25.4
2018-04-02T01:27:25.559Z,25.4
2018-04-02T01:28:15.113Z,25.4
2018-04-02T01:29:05.597Z,25.4
2018-04-02T01:29:55.912Z,25.4
2018-04-02T01:30:46.359Z,25.4
2018-04-02T01:31:35.718Z,25.4
2018-04-02T01:32:26.430Z,25.4
2018-04-02T01:33:15.544Z,25.4
2018-04-02T01:34:05.836Z,25.4
2018-04-02T01:34:56.696Z,25.4
2018-04-02T01:35:46.378Z,25.4
2018-04-02T01:36:36.746Z,25.4
2018-04-02T01:37:26.556Z,25.4
2018-04-02T01:38:16.255Z,25.4
2018-04-02T01:39:06.468Z,25.4
2018-04-02T01:39:56.633Z,25.4
2018-04-02T01:40:46.865Z,25.4
2018-04-02T01:41:37.201Z,25.4
2018-04-02T01:42:27.390Z,25.4
2018-04-02T01:43:16.659Z,25.4
2018-04-02T01:44:06.758Z,25.4
2018-04-02T01:44:56.512Z,25.4
2018-04-02T01:45:46.784Z,25.4
2018-04-02T01:46:36.936Z,25.4
2018-04-02T01:47:26.817Z,25.4
2018-04-02T01:48:17.810Z,25.4
2018-04-02T01:49:08.168Z,25.4
2018-04-02T01:49:58.488Z,25.4
2018-04-02T01:50:48.354Z,25.4
2018-04-02T01:51:38.083Z,25.4
2018-04-02T01:52:28.394Z,25.4
2018-04-02T01:53:17.895Z,25.4
2018-04-02T01:54:08.010Z,25.4
2018-04-02T01:54:57.854Z,25.4
2018-04-02T01:55:47.825Z,25.4
2018-04-02T01:56:38.175Z,25.4
2018-04-02T01:57:26.957Z,25.4
2018-04-02T01:58:18.377Z,25.4
2018-04-02T01:59:07.002Z,25.4
2018-04-02T01:59:58.021Z,25.4
2018-04-02T02:00:47.279Z,25.4
2018-04-02T02:01:38.357Z,25.4
2018-04-02T02:02:28.192Z,25.4
2018-04-02T02:03:18.617Z,25.4
2018-04-02T02:04:07.729Z,25.4
2018-04-02T02:04:58.233Z,25.4
2018-04-02T02:05:48.151Z,25.4
2018-04-02T02:06:39.300Z,25.4
2018-04-02T02:07:28.059Z,25.4
2018-04-02T02:08:18.707Z,25.4
2018-04-02T02:09:08.371Z,25.4
2018-04-02T02:09:58.239Z,25.4
2018-04-02T02:10:49.469Z,25.4
2018-04-02T02:11:37.989Z,25.4
2018-04-02T02:12:28.869Z,25.4
2018-04-02T02:13:18.776Z,25.3
2018-04-02T02:14:08.566Z,25.4
2018-04-02T02:14:58.139Z,25.4
2018-04-02T02:15:48.955Z,25.4
2018-04-02T02:16:38.551Z,25.4
2018-04-02T02:17:28.878Z,25.4
2018-04-02T02:18:18.191Z,25.4
2018-04-02T02:19:08.981Z,25.4
2018-04-02T02:19:59.461Z,25.4
2018-04-02T02:20:49.913Z,25.4
2018-04-02T02:21:39.471Z,25.4
2018-04-02T02:22:29.666Z,25.4
2018-04-02T02:23:19.914Z,25.4
2018-04-02T02:24:08.993Z,25.4
2018-04-02T02:25:00.548Z,25.3
2018-04-02T02:25:50.298Z,25.4
2018-04-02T02:26:39.878Z,25.3
2018-04-02T02:27:29.577Z,25.4
2018-04-02T02:28:20.248Z,25.3
2018-04-02T02:29:09.075Z,25.4
2018-04-02T02:29:59.608Z,25.3
2018-04-02T02:30:50.273Z,25.3
2018-04-02T02:31:40.445Z,25.4
2018-04-02T02:32:30.283Z,25.4
2018-04-02T02:33:20.709Z,25.4
2018-04-02T02:34:10.726Z,25.4
2018-04-02T02:35:00.364Z,25.3
2018-04-02T02:35:50.158Z,25.4
2018-04-02T02:36:40.041Z,25.3
2018-04-02T02:37:31.245Z,25.4
2018-04-02T02:38:21.499Z,25.3
2018-04-02T02:39:10.493Z,25.3
2018-04-02T02:40:01.764Z,25.4
2018-04-02T02:40:51.126Z,25.3
2018-04-02T02:41:41.367Z,25.3
2018-04-02T02:42:31.220Z,25.3
2018-04-02T02:43:21.100Z,25.3
2018-04-02T02:44:11.119Z,25.3
2018-04-02T02:45:01.612Z,25.3
2018-04-02T02:45:51.447Z,25.3
2018-04-02T02:46:40.946Z,25.3
2018-04-02T02:47:32.742Z,25.3
2018-04-02T02:48:21.620Z,25.3
2018-04-02T02:49:11.532Z,25.3
2018-04-02T02:50:01.939Z,25.3
2018-04-02T02:50:52.982Z,25.3
2018-04-02T02:51:42.451Z,25.3
2018-04-02T02:52:33.139Z,25.3
2018-04-02T02:53:22.293Z,25.3
2018-04-02T02:54:13.213Z,25.3
2018-04-02T02:55:02.420Z,25.3
2018-04-02T02:55:53.042Z,25.3
2018-04-02T02:56:43.357Z,25.3
2018-04-02T02:57:33.443Z,25.3
2018-04-02T02:58:22.637Z,25.3
2018-04-02T02:59:13.288Z,25.3
2018-04-02T03:00:03.081Z,25.3
2018-04-02T03:00:53.686Z,25.3
2018-04-02T03:01:43.764Z,25.3
2018-04-02T03:02:33.318Z,25.3
2018-04-02T03:03:24.218Z,25.3
2018-04-02T03:04:13.057Z,25.3
2018-04-02T03:05:02.625Z,25.3
2018-04-02T03:05:52.253Z,25.3
2018-04-02T03:06:43.304Z,25.3
2018-04-02T03:07:33.425Z,25.3
2018-04-02T03:08:23.021Z,25.3
2018-04-02T03:09:13.105Z,25.3
2018-04-02T03:10:03.608Z,25.3
2018-04-02T03:10:51.503Z,25.3
2018-04-02T03:11:42.956Z,25.3
2018-04-02T03:12:32.725Z,25.3
2018-04-02T03:13:23.758Z,25.3
2018-04-02T03:14:13.225Z,25.3
2018-04-02T03:15:03.703Z,25.3
2018-04-02T03:15:53.853Z,25.3
2018-04-02T03:16:43.609Z,25.3
2018-04-02T03:17:33.260Z,25.3
2018-04-02T03:18:23.153Z,25.3
2018-04-02T03:19:13.034Z,25.3
2018-04-02T03:20:03.845Z,25.3
2018-04-02T03:20:53.520Z,25.3
2018-04-02T03:21:43.177Z,25.3
2018-04-02T03:22:34.567Z,25.3
2018-04-02T03:23:23.847Z,25.3
2018-04-02T03:24:15.095Z,25.3
2018-04-02T03:25:04.287Z,25.3
2018-04-02T03:25:54.344Z,25.3
2018-04-02T03:26:44.824Z,25.3
2018-04-02T03:27:34.846Z,25.3
2018-04-02T03:28:24.370Z,25.3
2018-04-02T03:29:14.503Z,25.3
2018-04-02T03:30:03.846Z,25.3
2018-04-02T03:30:54.399Z,25.3
2018-04-02T03:31:44.849Z,25.3
2018-04-02T03:32:34.867Z,25.3
2018-04-02T03:33:24.444Z,25.3
2018-04-02T03:34:14.419Z,25.3
2018-04-02T03:35:05.655Z,25.3
2018-04-02T03:35:55.438Z,25.3
2018-04-02T03:36:45.853Z,25.3
2018-04-02T03:37:35.206Z,25.2
2018-04-02T03:38:24.681Z,25.3
2018-04-02T03:39:15.016Z,25.3
2018-04-02T03:40:06.292Z,25.3
2018-04-02T03:40:55.582Z,25.2
2018-04-02T03:41:44.924Z,25.3
2018-04-02T03:42:34.985Z,25.3
2018-04-02T03:43:25.934Z,25.3
2018-04-02T03:44:16.019Z,25.3
2018-04-02T03:45:05.550Z,25.3
2018-04-02T03:45:55.260Z,25.3
2018-04-02T03:46:45.378Z,25.3
2018-04-02T03:47:35.651Z,25.3
2018-04-02T03:48:26.851Z,25.2
2018-04-02T03:49:16.336Z,25.3
2018-04-02T03:50:06.405Z,25.3
2018-04-02T03:50:56.742Z,25.3
2018-04-02T03:51:46.535Z,25.3
2018-04-02T03:52:37.158Z,25.3
2018-04-02T03:53:26.911Z,25.3
2018-04-02T03:54:17.276Z,25.3
2018-04-02T03:55:07.075Z,25.3
2018-04-02T03:55:57.118Z,25.3
2018-04-02T03:56:47.458Z,25.3
2018-04-02T03:57:37.867Z,25.3
2018-04-02T03:58:27.618Z,25.3
2018-04-02T03:59:16.800Z,25.3
2018-04-02T04:00:07.993Z,25.3
2018-04-02T04:00:57.182Z,25.3
2018-04-02T04:01:48.157Z,25.3
2018-04-02T04:02:37.333Z,25.3
2018-04-02T04:03:27.950Z,25.3
2018-04-02T04:04:17.715Z,25.3
2018-04-02T04:05:07.830Z,25.3
2018-04-02T04:05:56.972Z,25.3
2018-04-02T04:06:48.451Z,25.3
2018-04-02T04:07:37.121Z,25.3
2018-04-02T04:08:27.067Z,25.3
2018-04-02T04:09:16.920Z,25.3
2018-04-02T04:10:07.659Z,25.2
2018-04-02T04:10:57.536Z,25.2
2018-04-02T04:11:47.423Z,25.2
2018-04-02T04:12:38.076Z,25.2
2018-04-02T04:13:27.827Z,25.2
2018-04-02T04:14:18.479Z,25.2
2018-04-02T04:15:07.942Z,25.2
2018-04-02T04:15:57.624Z,25.2
2018-04-02T04:16:47.849Z,25.2
2018-04-02T04:17:38.425Z,25.2
2018-04-02T04:18:28.477Z,25.2
2018-04-02T04:19:18.538Z,25.2
2018-04-02T04:20:07.823Z,25.2
2018-04-02T04:20:57.798Z,25.2
2018-04-02T04:21:47.953Z,25.1
2018-04-02T04:22:38.009Z,25.2
2018-04-02T04:23:28.268Z,25.2
2018-04-02T04:24:18.236Z,25.2
2018-04-02T04:25:07.956Z,25.2
2018-04-02T04:25:57.770Z,25.2
2018-04-02T04:26:48.527Z,25.2
2018-04-02T04:27:39.498Z,25.2
2018-04-02T04:28:28.413Z,25.1
2018-04-02T04:29:18.790Z,25.2
2018-04-02T04:30:09.023Z,25.1
2018-04-02T04:30:59.179Z,25.1
2018-04-02T04:31:49.624Z,25.1
2018-04-02T04:32:39.145Z,25.1
2018-04-02T04:33:28.687Z,25.1
2018-04-02T04:34:19.205Z,25.1
2018-04-02T04:35:08.509Z,25.1
2018-04-02T04:35:59.385Z,25.1
2018-04-02T04:36:49.494Z,25.1
2018-04-02T04:37:38.885Z,25.1
2018-04-02T04:38:29.346Z,25.1
2018-04-02T04:39:19.186Z,25.1
2018-04-02T04:40:09.790Z,25
2018-04-02T04:40:59.721Z,25
2018-04-02T04:41:49.305Z,25
2018-04-02T04:42:40.027Z,25
2018-04-02T04:43:29.516Z,25
2018-04-02T04:44:19.927Z,25
2018-04-02T04:45:09.259Z,25
2018-04-02T04:46:00.575Z,25
2018-04-02T04:46:49.459Z,25
2018-04-02T04:47:40.213Z,25
2018-04-02T04:48:29.969Z,25
2018-04-02T04:49:20.754Z,25
2018-04-02T04:50:10.079Z,25
2018-04-02T04:51:00.524Z,24.9
2018-04-02T04:51:50.765Z,25
2018-04-02T04:52:40.554Z,25
2018-04-02T04:53:31.135Z,24.9
2018-04-02T04:54:20.369Z,24.9
2018-04-02T04:55:10.466Z,25
2018-04-02T04:56:00.924Z,24.9
2018-04-02T04:56:50.866Z,24.9
2018-04-02T04:57:40.749Z,24.9
2018-04-02T04:58:30.381Z,25
2018-04-02T04:59:21.433Z,24.9
2018-04-02T05:00:11.253Z,24.9
2018-04-02T05:01:01.274Z,24.9
2018-04-02T05:01:51.625Z,24.9
2018-04-02T05:02:41.078Z,25
2018-04-02T05:03:31.174Z,25
2018-04-02T05:04:21.344Z,24.9
2018-04-02T05:05:12.161Z,24.9
2018-04-02T05:06:01.584Z,24.9
2018-04-02T05:07:42.353Z,24.9
2018-04-02T05:08:31.328Z,25
2018-04-02T05:09:22.718Z,24.9
2018-04-02T05:10:12.326Z,24.9
2018-04-02T05:11:01.503Z,25
2018-04-02T05:11:51.550Z,24.9
2018-04-02T05:12:42.848Z,24.9
2018-04-02T05:13:31.666Z,24.9
2018-04-02T05:14:22.360Z,24.9
2018-04-02T05:15:11.201Z,24.9
2018-04-02T05:16:02.239Z,24.9
2018-04-02T05:16:52.352Z,24.9
2018-04-02T05:17:41.921Z,24.9
2018-04-02T05:18:32.565Z,24.9
2018-04-02T05:19:22.698Z,24.9
2018-04-02T05:20:13.228Z,24.9
2018-04-02T05:21:02.721Z,24.9
2018-04-02T05:21:52.875Z,24.9
2018-04-02T05:22:42.597Z,24.9
2018-04-02T05:23:32.300Z,24.9
2018-04-02T05:24:22.872Z,24.9
2018-04-02T05:25:12.816Z,24.9
2018-04-02T05:26:02.362Z,24.9
2018-04-02T05:26:53.126Z,24.9
2018-04-02T05:27:44.292Z,24.9
2018-04-02T05:28:33.842Z,24.9
2018-04-02T05:29:24.159Z,24.9
2018-04-02T05:30:14.509Z,24.9
2018-04-02T05:31:04.242Z,24.9
2018-04-02T05:31:54.074Z,24.9
2018-04-02T05:32:44.154Z,24.8
2018-04-02T05:33:34.214Z,24.9
2018-04-02T05:34:24.862Z,24.8
2018-04-02T05:35:14.586Z,24.9
2018-04-02T05:36:04.689Z,24.8
2018-04-02T05:36:55.016Z,24.8
2018-04-02T05:37:43.366Z,24.8
2018-04-02T05:38:34.861Z,24.8
2018-04-02T05:39:23.846Z,24.8
2018-04-02T05:40:14.292Z,24.8
2018-04-02T05:41:03.273Z,24.8
2018-04-02T05:41:53.476Z,24.8
2018-04-02T05:42:43.971Z,24.8
2018-04-02T05:43:34.434Z,24.9
2018-04-02T05:44:25.277Z,24.9
2018-04-02T05:45:14.355Z,24.9
2018-04-02T05:46:04.452Z,24.9
2018-04-02T05:46:54.415Z,24.8
2018-04-02T05:47:43.875Z,24.8
2018-04-02T05:48:34.020Z,24.8
2018-04-02T05:49:24.455Z,24.8
2018-04-02T05:50:14.820Z,24.8
2018-04-02T05:51:04.201Z,24.8
2018-04-02T05:51:55.417Z,24.8
2018-04-02T05:52:44.310Z,24.8
2018-04-02T05:53:35.072Z,24.8
2018-04-02T05:54:24.614Z,24.8
2018-04-02T05:55:14.881Z,24.8
2018-04-02T05:56:04.878Z,24.8
2018-04-02T05:56:55.442Z,24.8
2018-04-02T05:57:44.584Z,24.8
2018-04-02T05:58:35.339Z,24.8
2018-04-02T05:59:26.362Z,24.7
2018-04-02T06:00:14.964Z,24.8
2018-04-02T06:01:05.127Z,24.8
2018-04-02T06:01:56.068Z,24.7
2018-04-02T06:02:45.926Z,24.8
2018-04-02T06:03:35.275Z,24.7
2018-04-02T06:04:26.053Z,24.8
2018-04-02T06:05:15.909Z,24.7
2018-04-02T06:06:05.799Z,24.7
2018-04-02T06:06:56.111Z,24.7
2018-04-02T06:07:45.974Z,24.7
2018-04-02T06:08:35.668Z,24.7
2018-04-02T06:09:25.776Z,24.7
2018-04-02T06:10:15.866Z,24.7
2018-04-02T06:11:06.627Z,24.7
2018-04-02T06:11:56.006Z,24.7
2018-04-02T06:12:45.682Z,24.7
2018-04-02T06:13:36.536Z,24.7
2018-04-02T06:14:26.484Z,24.7
2018-04-02T06:15:16.840Z,24.7
2018-04-02T06:16:06.112Z,24.7
2018-04-02T06:16:56.903Z,24.7
2018-04-02T06:17:46.420Z,24.7
2018-04-02T06:18:37.283Z,24.7
2018-04-02T06:19:26.798Z,24.7
2018-04-02T06:20:15.996Z,24.7
2018-04-02T06:21:07.152Z,24.7
2018-04-02T06:21:57.399Z,24.7
2018-04-02T06:22:46.580Z,24.7
2018-04-02T06:23:36.937Z,24.7
2018-04-02T06:24:28.187Z,24.7
2018-04-02T06:25:17.792Z,24.7
2018-04-02T06:26:06.973Z,24.7
2018-04-02T06:26:57.184Z,24.7
2018-04-02T06:27:47.732Z,24.7
2018-04-02T06:28:38.085Z,24.7
2018-04-02T06:29:27.577Z,24.7
2018-04-02T06:30:17.511Z,24.7
2018-04-02T06:31:08.570Z,24.7
2018-04-02T06:31:57.742Z,24.7
2018-04-02T06:32:46.810Z,24.7
2018-04-02T06:33:37.562Z,24.6
2018-04-02T06:34:28.112Z,24.6
2018-04-02T06:35:17.712Z,24.6
2018-04-02T06:36:07.834Z,24.6
2018-04-02T06:36:58.203Z,24.6
2018-04-02T06:37:48.945Z,24.6
2018-04-02T06:38:38.120Z,24.6
2018-04-02T06:39:27.916Z,24.6
2018-04-02T06:40:18.434Z,24.6
2018-04-02T06:41:07.614Z,24.6
2018-04-02T06:41:58.669Z,24.6
2018-04-02T06:42:48.474Z,24.6
2018-04-02T06:43:38.134Z,24.6
2018-04-02T06:44:28.849Z,24.6
2018-04-02T06:45:18.684Z,24.6
2018-04-02T06:46:08.953Z,24.6
2018-04-02T06:46:59.238Z,24.6
2018-04-02T06:47:48.799Z,24.6
2018-04-02T06:48:39.537Z,24.6
2018-04-02T06:49:29.100Z,24.6
2018-04-02T06:50:19.558Z,24.6
2018-04-02T06:51:09.236Z,24.6
2018-04-02T06:51:59.390Z,24.6
2018-04-02T06:52:49.769Z,24.6
2018-04-02T06:53:39.003Z,24.6
2018-04-02T06:54:29.680Z,24.5
2018-04-02T06:55:20.091Z,24.5
2018-04-02T06:56:09.387Z,24.5
2018-04-02T06:56:59.463Z,24.5
2018-04-02T06:57:49.712Z,24.5
2018-04-02T06:58:39.368Z,24.5
2018-04-02T06:59:29.660Z,24.5
2018-04-02T07:00:19.491Z,24.5
2018-04-02T07:01:09.821Z,24.5
2018-04-02T07:02:00.020Z,24.5
2018-04-02T07:02:49.737Z,24.5
2018-04-02T07:03:39.113Z,24.5
2018-04-02T07:04:30.479Z,24.5
2018-04-02T07:05:20.595Z,24.5
2018-04-02T07:06:10.101Z,24.5
2018-04-02T07:06:59.865Z,24.4
2018-04-02T07:07:50.265Z,24.5
2018-04-02T07:08:39.807Z,24.4
2018-04-02T07:09:30.337Z,24.4
2018-04-02T07:10:21.568Z,24.4
2018-04-02T07:11:10.079Z,24.4
2018-04-02T07:12:00.625Z,24.4
2018-04-02T07:12:50.475Z,24.4
2018-04-02T07:13:39.835Z,24.4
2018-04-02T07:14:30.880Z,24.4
2018-04-02T07:15:21.371Z,24.4
2018-04-02T07:16:10.728Z,24.4
2018-04-02T07:17:00.125Z,24.4
2018-04-02T07:17:51.864Z,24.4
2018-04-02T07:18:41.177Z,24.4
2018-04-02T07:19:31.155Z,24.4
2018-04-02T07:20:20.932Z,24.4
2018-04-02T07:21:11.001Z,24.4
2018-04-02T07:22:00.652Z,24.4
2018-04-02T07:22:50.993Z,24.4
2018-04-02T07:23:41.820Z,24.4
2018-04-02T07:24:31.802Z,24.4
2018-04-02T07:25:21.704Z,24.4
2018-04-02T07:26:11.034Z,24.4
2018-04-02T07:27:01.882Z,24.4
2018-04-02T07:27:50.996Z,24.3
2018-04-02T07:28:42.312Z,24.3
2018-04-02T07:29:32.080Z,24.3
2018-04-02T07:30:20.683Z,24.3
2018-04-02T07:31:11.913Z,24.3
2018-04-02T07:32:02.238Z,24.3
2018-04-02T07:32:52.502Z,24.3
2018-04-02T07:33:41.649Z,24.3
2018-04-02T07:34:31.844Z,24.3
2018-04-02T07:35:21.828Z,24.3
2018-04-02T07:36:12.589Z,24.3
2018-04-02T07:37:02.329Z,24.2
2018-04-02T07:37:52.296Z,24.2
2018-04-02T07:38:43.510Z,24.3
2018-04-02T07:39:33.381Z,24.2
2018-04-02T07:40:22.173Z,24.2
2018-04-02T07:41:12.031Z,24.2
2018-04-02T07:42:02.771Z,20.4
2018-04-02T07:42:52.996Z,20.8
2018-04-02T07:43:43.083Z,28.6
2018-04-02T07:44:33.378Z,31.8
2018-04-02T07:45:23.906Z,30.4
2018-04-02T07:46:12.593Z,26.4
2018-04-02T07:47:03.452Z,24.3
2018-04-02T07:47:52.888Z,24.8
2018-04-02T07:48:43.958Z,26.7
2018-04-02T07:49:33.797Z,28.6
2018-04-02T07:50:24.108Z,29.6
2018-04-02T07:51:13.538Z,29.6
2018-04-02T07:52:03.393Z,29.1
2018-04-02T07:52:53.449Z,28.4
2018-04-02T07:55:23.847Z,28.6
2018-04-02T07:56:13.640Z,30
2018-04-02T07:57:04.300Z,31.2
2018-04-02T07:57:53.797Z,31.6
2018-04-02T07:58:43.693Z,31
2018-04-02T07:59:34.056Z,30.3
2018-04-02T08:00:24.267Z,29.6
2018-04-02T08:01:14.082Z,29.5
2018-04-02T08:02:04.230Z,30.2
2018-04-02T08:02:54.935Z,31.5
2018-04-02T08:03:44.722Z,32.9
2018-04-02T08:04:33.912Z,33.3
2018-04-02T08:05:24.356Z,32.8
2018-04-02T08:06:14.489Z,31.8
2018-04-02T08:07:04.629Z,31.4
2018-04-02T08:07:54.622Z,31.3
2018-04-02T08:08:45.360Z,31.1
2018-04-02T08:09:34.552Z,30.9
2018-04-02T08:10:24.784Z,31.3
2018-04-02T08:11:16.002Z,32.3
2018-04-02T08:12:04.940Z,33.3
2018-04-02T08:12:54.717Z,34.3
2018-04-02T08:13:44.800Z,34.6
2018-04-02T08:14:35.291Z,34
2018-04-02T08:15:25.282Z,32.9
2018-04-02T08:16:15.332Z,32.1
2018-04-02T08:17:04.336Z,32.6
2018-04-02T08:17:56.184Z,34
2018-04-02T08:18:45.292Z,35.9
2018-04-02T08:19:35.615Z,37.4
2018-04-02T08:20:26.221Z,38.1
2018-04-02T08:21:15.813Z,37.8
2018-04-02T08:22:06.019Z,37.2
2018-04-02T08:22:56.482Z,37.1
2018-04-02T08:23:45.783Z,36.8
2018-04-02T08:24:35.743Z,36.9
2018-04-02T08:25:25.797Z,37.4
2018-04-02T08:26:16.194Z,37.9
2018-04-02T08:27:06.227Z,37.4
2018-04-02T08:27:55.797Z,36.4
2018-04-02T08:28:45.622Z,35.2
2018-04-02T08:29:36.608Z,34.2
2018-04-02T08:30:26.078Z,33.6
2018-04-02T08:31:16.636Z,33.3
2018-04-02T08:32:06.471Z,33.1
2018-04-02T08:32:57.202Z,32.9
2018-04-02T08:33:47.004Z,32.6
2018-04-02T08:34:35.592Z,32.2
2018-04-02T08:35:26.443Z,31.8
2018-04-02T08:36:16.909Z,31.5
2018-04-02T08:37:06.811Z,31.3
2018-04-02T08:37:57.551Z,31.1
2018-04-02T08:38:47.156Z,31.1
2018-04-02T08:39:36.957Z,31.3
2018-04-02T08:40:27.297Z,31.4
2018-04-02T08:41:17.282Z,31.6
2018-04-02T08:42:07.113Z,31.6
2018-04-02T08:42:57.198Z,31.7
2018-04-02T08:43:46.756Z,32.6
2018-04-02T08:44:36.793Z,34.6
2018-04-02T08:45:27.651Z,37
2018-04-02T08:46:18.429Z,38.4
2018-04-02T08:47:07.061Z,38.4
2018-04-02T08:47:57.739Z,37.4
2018-04-02T08:48:47.807Z,36.3
2018-04-02T08:49:37.866Z,35.8
2018-04-02T08:50:27.832Z,35.5
2018-04-02T08:51:18.133Z,35.5
2018-04-02T08:52:07.068Z,35.6
2018-04-02T08:52:58.294Z,35.7
2018-04-02T08:53:47.865Z,36
2018-04-02T08:54:37.486Z,36.3
2018-04-02T08:55:27.906Z,36.4
2018-04-02T08:56:18.175Z,36.4
2018-04-02T08:57:09.194Z,36.5
2018-04-02T08:57:58.712Z,37.5
2018-04-02T08:58:48.440Z,38.9
2018-04-02T08:59:39.113Z,40.1
2018-04-02T09:00:28.192Z,40.3
2018-04-02T09:01:18.913Z,39.3
2018-04-02T09:02:08.558Z,38.1
2018-04-02T09:02:58.365Z,38.1
2018-04-02T09:03:48.707Z,39.3
2018-04-02T09:04:38.668Z,41
2018-04-02T09:05:28.965Z,42.7
2018-04-02T09:06:19.125Z,43.8
2018-04-02T09:07:09.061Z,44.3
2018-04-02T09:07:59.692Z,44.6
2018-04-02T09:08:49.482Z,44.8
2018-04-02T09:09:38.647Z,45.1
2018-04-02T09:10:29.305Z,45.6
2018-04-02T09:11:18.758Z,46.1
2018-04-02T09:12:09.735Z,46.5
2018-04-02T09:12:59.687Z,46.9
2018-04-02T09:13:49.843Z,47.4
2018-04-02T09:14:38.343Z,47.9
2018-04-02T09:15:30.337Z,48.3
2018-04-02T09:16:19.852Z,48.8
2018-04-02T09:17:09.395Z,49.1
2018-04-02T09:17:59.972Z,49.2
2018-04-02T09:18:49.793Z,48.5
2018-04-02T09:19:40.185Z,46.9
2018-04-02T09:20:30.432Z,45
2018-04-02T09:21:20.464Z,43.9
2018-04-02T09:22:09.892Z,43.8
2018-04-02T09:22:59.849Z,43.9
2018-04-02T09:23:50.371Z,44.6
2018-04-02T09:24:40.135Z,45.6
2018-04-02T09:25:30.044Z,46.3
2018-04-02T09:26:21.689Z,45.8
2018-04-02T09:27:09.932Z,44.3
2018-04-02T09:27:58.848Z,42.8
2018-04-02T09:28:49.372Z,41.7
2018-04-02T09:29:40.531Z,41
2018-04-02T09:30:30.268Z,40.8
2018-04-02T09:31:20.963Z,40.9
2018-04-02T09:32:10.506Z,40.8
2018-04-02T09:33:01.078Z,40.6
2018-04-02T09:33:51.088Z,40.1
2018-04-02T09:34:41.787Z,39.5
2018-04-02T09:35:30.848Z,39
2018-04-02T09:36:21.282Z,38.7
2018-04-02T09:37:11.378Z,38.4
2018-04-02T09:38:01.399Z,38.1
2018-04-02T09:38:51.968Z,37.9
2018-04-02T09:39:41.537Z,37.7
2018-04-02T09:40:31.492Z,37.5
2018-04-02T09:41:21.188Z,37.3
2018-04-02T09:42:12.263Z,37.1
2018-04-02T09:43:02.565Z,37.1
2018-04-02T09:43:52.916Z,37.7
2018-04-02T09:44:42.702Z,39.3
2018-04-02T09:45:32.232Z,41.3
2018-04-02T09:46:22.485Z,43.5
2018-04-02T09:47:13.142Z,45.4
2018-04-02T09:48:03.227Z,46.7
2018-04-02T09:48:53.275Z,47.5
2018-04-02T09:49:43.058Z,47.9
2018-04-02T09:50:33.089Z,47.2
2018-04-02T09:51:23.177Z,45.7
2018-04-02T09:52:13.506Z,44.1
2018-04-02T09:53:03.282Z,42.9
2018-04-02T09:53:53.355Z,42.1
2018-04-02T09:54:43.686Z,41.6
2018-04-02T09:55:33.181Z,41.1
2018-04-02T09:56:23.539Z,40.8
2018-04-02T09:57:13.887Z,40.4
2018-04-02T09:58:03.936Z,40
2018-04-02T09:58:53.991Z,39.7
2018-04-02T09:59:43.543Z,39.4
2018-04-02T10:00:34.151Z,39.2
2018-04-02T10:01:24.150Z,39
2018-04-02T10:02:13.974Z,38.9
2018-04-02T10:03:03.439Z,38.8
2018-04-02T10:03:53.782Z,38.8
2018-04-02T10:04:46.329Z,38.8
2018-04-02T10:05:33.886Z,38.9
2018-04-02T10:06:25.141Z,39
2018-04-02T10:07:14.328Z,39
2018-04-02T10:08:04.402Z,38.8
2018-04-02T10:08:54.432Z,38.5
2018-04-02T10:09:43.968Z,38.3
2018-04-02T10:10:34.281Z,38
2018-04-02T10:11:24.895Z,37.8
2018-04-02T10:12:14.397Z,37.8
2018-04-02T10:13:04.760Z,37.9
2018-04-02T10:13:54.861Z,38
2018-04-02T10:14:44.916Z,38.3
2018-04-02T10:15:34.865Z,39.5
2018-04-02T10:16:25.032Z,41.7
2018-04-02T10:17:14.758Z,43.7
2018-04-02T10:18:05.148Z,44.1
2018-04-02T10:18:55.168Z,43.3
2018-04-02T10:19:44.680Z,42.1
2018-04-02T10:20:34.649Z,41.4
2018-04-02T10:21:24.593Z,41.1
2018-04-02T10:22:14.631Z,41
2018-04-02T10:23:04.885Z,40.9
2018-04-02T10:23:55.255Z,40.8
2018-04-02T10:24:45.133Z,40.9
2018-04-02T10:25:34.853Z,40.9
2018-04-02T10:26:24.619Z,40.8
2018-04-02T10:27:14.571Z,40.5
2018-04-02T10:28:04.855Z,40.2
2018-04-02T10:28:54.668Z,39.9
2018-04-02T10:29:45.562Z,39.9
2018-04-02T10:30:34.211Z,40.1
2018-04-02T10:31:25.671Z,41.4
2018-04-02T10:32:14.648Z,43.5
2018-04-02T10:33:05.546Z,45.2
2018-04-02T10:33:55.737Z,45.4
2018-04-02T10:34:45.881Z,44.3
2018-04-02T10:35:35.044Z,42.8
2018-04-02T10:36:24.347Z,41.8
2018-04-02T10:37:15.592Z,42.1
2018-04-02T10:38:05.157Z,42.9
2018-04-02T10:38:55.616Z,43.2
2018-04-02T10:39:45.452Z,42.9
2018-04-02T10:40:35.842Z,42.7
2018-04-02T10:41:25.961Z,43.3
2018-04-02T10:42:15.846Z,44.5
2018-04-02T10:43:06.125Z,45
2018-04-02T10:43:56.074Z,44.5
2018-04-02T10:44:46.317Z,43.4
2018-04-02T10:45:35.004Z,42.4
2018-04-02T10:46:26.742Z,42.3
2018-04-02T10:47:16.117Z,42.4
2018-04-02T10:48:06.796Z,42.6
2018-04-02T10:48:56.400Z,42.7
2018-04-02T10:49:45.911Z,42.7
2018-04-02T10:50:36.358Z,42.3
2018-04-02T10:51:26.954Z,41.8
2018-04-02T10:52:17.148Z,41.3
2018-04-02T10:53:06.646Z,40.5
2018-04-02T10:53:56.851Z,39.6
2018-04-02T10:54:46.978Z,38.6
2018-04-02T10:55:36.184Z,37.7
2018-04-02T10:56:27.175Z,36.8
2018-04-02T10:57:16.562Z,36
2018-04-02T10:58:06.133Z,35.2
2018-04-02T10:58:57.555Z,34.4
2018-04-02T10:59:48.080Z,33.7
2018-04-02T11:00:36.391Z,33.3
2018-04-02T11:01:27.364Z,33.1
2018-04-02T11:02:17.543Z,33
2018-04-02T11:03:07.707Z,32.9
2018-04-02T11:03:58.213Z,32.7
2018-04-02T11:04:48.117Z,32.5
2018-04-02T11:05:38.071Z,32.2
2018-04-02T11:06:27.557Z,32
2018-04-02T11:07:17.496Z,31.9
2018-04-02T11:08:08.333Z,32
2018-04-02T11:08:57.274Z,32.1
2018-04-02T11:09:47.594Z,32.1
2018-04-02T11:10:38.717Z,32
2018-04-02T11:11:28.882Z,31.8